sensor_id;sensor_type;location;lat;lon;timestamp;temperature;humidity
23685;DHT22;12020;51.384;6.908;2024-02-21T11:10:36;9.70;99.90
23685;DHT22;12020;51.384;6.908;2024-02-21T11:13:09;10.60;99.90
23685;DHT22;12020;51.384;6.908;2024-02-21T11:15:35;10.60;99.90
23685;DHT22;12020;51.384;6.908;2024-02-21T11:18:00;10.60;99.90
23685;DHT22;12020;51.384;6.908;2024-02-21T11:20:36;10.60;99.90
23685;DHT22;12020;51.384;6.908;2024-02-21T11:23:05;10.60;99.90
23685;DHT22;12020;51.384;6.908;2024-02-21T11:25:34;10.60;99.90
23685;DHT22;12020;51.384;6.908;2024-02-21T11:28:04;10.60;99.90
23685;DHT22;12020;51.384;6.908;2024-02-21T11:30:31;10.70;99.90
23685;DHT22;12020;51.384;6.908;2024-02-21T11:33:06;10.70;99.90
23685;DHT22;12020;51.384;6.908;2024-02-21T11:35:34;10.80;99.90
23685;DHT22;12020;51.384;6.908;2024-02-21T11:38:12;10.70;99.90
23685;DHT22;12020;51.384;6.908;2024-02-21T11:40:55;10.80;99.90
23685;DHT22;12020;51.384;6.908;2024-02-21T11:43:24;10.70;99.90
23685;DHT22;12020;51.384;6.908;2024-02-21T11:45:50;10.80;99.90
23685;DHT22;12020;51.384;6.908;2024-02-21T11:48:20;10.70;99.90
23685;DHT22;12020;51.384;6.908;2024-02-21T11:50:56;10.70;99.90
23685;DHT22;12020;51.384;6.908;2024-02-21T11:53:27;10.80;99.90
23685;DHT22;12020;51.384;6.908;2024-02-21T11:55:57;10.80;99.90
23685;DHT22;12020;51.384;6.908;2024-02-21T11:58:26;10.80;99.90
23685;DHT22;12020;51.384;6.908;2024-02-21T12:01:02;10.80;99.90
23685;DHT22;12020;51.384;6.908;2024-02-21T12:03:35;10.80;99.90
23685;DHT22;12020;51.384;6.908;2024-02-21T12:06:03;10.80;99.90
23685;DHT22;12020;51.384;6.908;2024-02-21T12:08:43;10.80;99.90
23685;DHT22;12020;51.384;6.908;2024-02-21T12:11:21;10.80;99.90
23685;DHT22;12020;51.384;6.908;2024-02-21T12:14:01;10.70;99.90
23685;DHT22;12020;51.384;6.908;2024-02-21T12:16:36;10.80;99.90
23685;DHT22;12020;51.384;6.908;2024-02-21T12:19:05;10.80;99.90
23685;DHT22;12020;51.384;6.908;2024-02-21T12:21:35;10.80;99.90
23685;DHT22;12020;51.384;6.908;2024-02-21T12:24:22;10.80;99.90
23685;DHT22;12020;51.384;6.908;2024-02-21T12:26:52;10.90;99.90
23685;DHT22;12020;51.384;6.908;2024-02-21T12:29:25;11.10;99.90
23685;DHT22;12020;51.384;6.908;2024-02-21T12:31:52;11.20;99.90
23685;DHT22;12020;51.384;6.908;2024-02-21T12:34:21;11.30;99.90
23685;DHT22;12020;51.384;6.908;2024-02-21T12:36:48;11.20;99.90
23685;DHT22;12020;51.384;6.908;2024-02-21T12:39:14;11.20;99.90
23685;DHT22;12020;51.384;6.908;2024-02-21T12:41:40;11.20;99.90
23685;DHT22;12020;51.384;6.908;2024-02-21T12:44:07;11.20;99.90
23685;DHT22;12020;51.384;6.908;2024-02-21T12:46:36;11.20;99.90
23685;DHT22;12020;51.384;6.908;2024-02-21T12:49:02;11.20;99.90
23685;DHT22;12020;51.384;6.908;2024-02-21T12:51:33;11.20;99.90
23685;DHT22;12020;51.384;6.908;2024-02-21T12:53:59;11.30;99.90
23685;DHT22;12020;51.384;6.908;2024-02-21T12:56:25;11.40;99.90
23685;DHT22;12020;51.384;6.908;2024-02-21T12:58:55;11.40;99.90
23685;DHT22;12020;51.384;6.908;2024-02-21T13:01:21;11.40;99.90
23685;DHT22;12020;51.384;6.908;2024-02-21T13:03:46;11.50;99.90
23685;DHT22;12020;51.384;6.908;2024-02-21T13:06:15;11.50;99.90
23685;DHT22;12020;51.384;6.908;2024-02-21T13:08:41;11.50;99.90
23685;DHT22;12020;51.384;6.908;2024-02-21T13:11:06;11.50;99.90
23685;DHT22;12020;51.384;6.908;2024-02-21T13:13:32;11.50;99.90
23685;DHT22;12020;51.384;6.908;2024-02-21T13:15:59;11.50;99.90
23685;DHT22;12020;51.384;6.908;2024-02-21T13:18:25;11.50;99.90
23685;DHT22;12020;51.384;6.908;2024-02-21T13:20:50;11.50;99.90
23685;DHT22;12020;51.384;6.908;2024-02-21T13:23:16;11.50;99.90
23685;DHT22;12020;51.384;6.908;2024-02-21T13:25:42;11.50;99.90
23685;DHT22;12020;51.384;6.908;2024-02-21T13:28:09;11.50;99.90
23685;DHT22;12020;51.384;6.908;2024-02-21T13:30:35;11.50;99.90
23685;DHT22;12020;51.384;6.908;2024-02-21T13:33:01;11.60;99.90
23685;DHT22;12020;51.384;6.908;2024-02-21T13:35:29;11.60;99.90
23685;DHT22;12020;51.384;6.908;2024-02-21T13:37:54;11.60;99.90
23685;DHT22;12020;51.384;6.908;2024-02-21T13:40:20;11.60;99.90
23685;DHT22;12020;51.384;6.908;2024-02-21T13:42:46;11.60;99.90
23685;DHT22;12020;51.384;6.908;2024-02-21T13:45:11;11.60;99.90
23685;DHT22;12020;51.384;6.908;2024-02-21T13:47:37;11.60;99.90
23685;DHT22;12020;51.384;6.908;2024-02-21T13:50:04;11.60;99.90
23685;DHT22;12020;51.384;6.908;2024-02-21T13:52:30;11.60;99.90
23685;DHT22;12020;51.384;6.908;2024-02-21T13:54:57;11.60;99.90
23685;DHT22;12020;51.384;6.908;2024-02-21T13:57:22;11.50;99.90
23685;DHT22;12020;51.384;6.908;2024-02-21T13:59:48;11.50;99.90
23685;DHT22;12020;51.384;6.908;2024-02-21T14:02:15;11.50;99.90
23685;DHT22;12020;51.384;6.908;2024-02-21T14:04:42;11.50;99.90
23685;DHT22;12020;51.384;6.908;2024-02-21T14:07:08;11.50;99.90
23685;DHT22;12020;51.384;6.908;2024-02-21T14:09:45;11.50;99.90
23685;DHT22;12020;51.384;6.908;2024-02-21T14:12:11;11.50;99.90
23685;DHT22;12020;51.384;6.908;2024-02-21T14:14:37;11.50;99.90
23685;DHT22;12020;51.384;6.908;2024-02-21T14:17:03;11.50;99.90
23685;DHT22;12020;51.384;6.908;2024-02-21T14:19:29;11.50;99.90
23685;DHT22;12020;51.384;6.908;2024-02-21T14:21:55;11.50;99.90
23685;DHT22;12020;51.384;6.908;2024-02-21T14:24:22;11.60;99.90
23685;DHT22;12020;51.384;6.908;2024-02-21T14:26:48;11.50;99.90
23685;DHT22;12020;51.384;6.908;2024-02-21T14:29:14;11.60;99.90
23685;DHT22;12020;51.384;6.908;2024-02-21T14:31:40;11.60;99.90
23685;DHT22;12020;51.384;6.908;2024-02-21T14:34:05;11.60;99.90
23685;DHT22;12020;51.384;6.908;2024-02-21T14:36:33;11.60;99.90
23685;DHT22;12020;51.384;6.908;2024-02-21T14:38:59;11.60;99.90
23685;DHT22;12020;51.384;6.908;2024-02-21T14:41:24;11.60;99.90
23685;DHT22;12020;51.384;6.908;2024-02-21T14:43:50;11.60;99.90
23685;DHT22;12020;51.384;6.908;2024-02-21T14:46:17;11.60;99.90
23685;DHT22;12020;51.384;6.908;2024-02-21T14:48:42;11.60;99.90
23685;DHT22;12020;51.384;6.908;2024-02-21T14:51:08;11.60;99.90
23685;DHT22;12020;51.384;6.908;2024-02-21T14:53:34;11.50;99.90
23685;DHT22;12020;51.384;6.908;2024-02-21T14:55:59;11.50;99.90
23685;DHT22;12020;51.384;6.908;2024-02-21T14:58:25;11.50;99.90
23685;DHT22;12020;51.384;6.908;2024-02-21T15:00:51;11.50;99.90
23685;DHT22;12020;51.384;6.908;2024-02-21T15:03:17;11.50;99.90
23685;DHT22;12020;51.384;6.908;2024-02-21T15:05:45;11.50;99.90
23685;DHT22;12020;51.384;6.908;2024-02-21T15:08:11;11.50;99.90
23685;DHT22;12020;51.384;6.908;2024-02-21T15:10:40;11.50;99.90
23685;DHT22;12020;51.384;6.908;2024-02-21T15:13:06;11.50;99.90
23685;DHT22;12020;51.384;6.908;2024-02-21T15:15:31;11.50;99.90
23685;DHT22;12020;51.384;6.908;2024-02-21T15:17:57;11.50;99.90
23685;DHT22;12020;51.384;6.908;2024-02-21T15:20:23;11.50;99.90
23685;DHT22;12020;51.384;6.908;2024-02-21T15:22:49;11.50;99.90
23685;DHT22;12020;51.384;6.908;2024-02-21T15:25:14;11.40;99.90
23685;DHT22;12020;51.384;6.908;2024-02-21T15:27:44;11.40;99.90
23685;DHT22;12020;51.384;6.908;2024-02-21T15:30:14;11.40;99.90
23685;DHT22;12020;51.384;6.908;2024-02-21T15:32:40;11.40;99.90
23685;DHT22;12020;51.384;6.908;2024-02-21T15:35:09;11.40;99.90
23685;DHT22;12020;51.384;6.908;2024-02-21T15:37:36;11.40;99.90
23685;DHT22;12020;51.384;6.908;2024-02-21T15:40:02;11.40;99.90
23685;DHT22;12020;51.384;6.908;2024-02-21T15:42:29;11.40;99.90
23685;DHT22;12020;51.384;6.908;2024-02-21T15:44:54;11.40;99.90
23685;DHT22;12020;51.384;6.908;2024-02-21T15:47:20;11.30;99.90
23685;DHT22;12020;51.384;6.908;2024-02-21T15:49:49;11.30;99.90
23685;DHT22;12020;51.384;6.908;2024-02-21T15:52:15;11.40;99.90
23685;DHT22;12020;51.384;6.908;2024-02-21T15:54:41;11.30;99.90
23685;DHT22;12020;51.384;6.908;2024-02-21T15:57:06;11.30;99.90
23685;DHT22;12020;51.384;6.908;2024-02-21T15:59:33;11.30;99.90
23685;DHT22;12020;51.384;6.908;2024-02-21T16:01:59;11.30;99.90
23685;DHT22;12020;51.384;6.908;2024-02-21T16:04:28;11.30;99.90
23685;DHT22;12020;51.384;6.908;2024-02-21T16:06:55;11.30;99.90
23685;DHT22;12020;51.384;6.908;2024-02-21T16:09:20;11.30;99.90
23685;DHT22;12020;51.384;6.908;2024-02-21T16:11:46;11.30;99.90
23685;DHT22;12020;51.384;6.908;2024-02-21T16:14:13;11.30;99.90
23685;DHT22;12020;51.384;6.908;2024-02-21T16:16:39;11.20;99.90
23685;DHT22;12020;51.384;6.908;2024-02-21T16:19:06;11.20;99.90
23685;DHT22;12020;51.384;6.908;2024-02-21T16:21:32;11.20;99.90
23685;DHT22;12020;51.384;6.908;2024-02-21T16:23:58;11.20;99.90
23685;DHT22;12020;51.384;6.908;2024-02-21T16:26:26;11.10;99.90
23685;DHT22;12020;51.384;6.908;2024-02-21T16:28:51;11.10;99.90
23685;DHT22;12020;51.384;6.908;2024-02-21T16:31:17;11.10;99.90
23685;DHT22;12020;51.384;6.908;2024-02-21T16:33:43;11.00;99.90
23685;DHT22;12020;51.384;6.908;2024-02-21T16:36:08;11.00;99.90
23685;DHT22;12020;51.384;6.908;2024-02-21T16:38:36;11.00;99.90
23685;DHT22;12020;51.384;6.908;2024-02-21T16:41:05;10.90;99.90
23685;DHT22;12020;51.384;6.908;2024-02-21T16:43:30;10.90;99.90
23685;DHT22;12020;51.384;6.908;2024-02-21T16:45:56;10.80;99.90
23685;DHT22;12020;51.384;6.908;2024-02-21T16:48:21;10.80;99.90
23685;DHT22;12020;51.384;6.908;2024-02-21T16:50:47;10.70;99.90
23685;DHT22;12020;51.384;6.908;2024-02-21T16:53:13;10.60;99.90
23685;DHT22;12020;51.384;6.908;2024-02-21T16:55:40;10.60;99.90
23685;DHT22;12020;51.384;6.908;2024-02-21T16:58:09;10.50;99.90
23685;DHT22;12020;51.384;6.908;2024-02-21T17:00:35;10.50;99.90
23685;DHT22;12020;51.384;6.908;2024-02-21T17:03:04;10.40;99.90
23685;DHT22;12020;51.384;6.908;2024-02-21T17:05:30;10.30;99.90
23685;DHT22;12020;51.384;6.908;2024-02-21T17:07:55;10.20;99.90
23685;DHT22;12020;51.384;6.908;2024-02-21T17:10:21;10.20;99.90
23685;DHT22;12020;51.384;6.908;2024-02-21T17:12:49;10.10;99.90
23685;DHT22;12020;51.384;6.908;2024-02-21T17:15:15;10.10;99.90
23685;DHT22;12020;51.384;6.908;2024-02-21T17:17:41;10.00;99.90
23685;DHT22;12020;51.384;6.908;2024-02-21T17:20:07;10.00;99.90
23685;DHT22;12020;51.384;6.908;2024-02-21T17:22:33;10.00;99.90
23685;DHT22;12020;51.384;6.908;2024-02-21T17:24:59;10.00;99.90
23685;DHT22;12020;51.384;6.908;2024-02-21T17:27:25;9.90;99.90
23685;DHT22;12020;51.384;6.908;2024-02-21T17:29:51;9.90;99.90
23685;DHT22;12020;51.384;6.908;2024-02-21T17:32:17;9.90;99.90
23685;DHT22;12020;51.384;6.908;2024-02-21T17:34:43;9.90;99.90
23685;DHT22;12020;51.384;6.908;2024-02-21T17:37:08;9.90;99.90
23685;DHT22;12020;51.384;6.908;2024-02-21T17:39:34;9.80;99.90
23685;DHT22;12020;51.384;6.908;2024-02-21T17:42:00;9.80;99.90
23685;DHT22;12020;51.384;6.908;2024-02-21T17:44:26;9.80;99.90
23685;DHT22;12020;51.384;6.908;2024-02-21T17:46:51;9.70;99.90
23685;DHT22;12020;51.384;6.908;2024-02-21T17:49:17;9.70;99.90
23685;DHT22;12020;51.384;6.908;2024-02-21T17:51:44;9.70;99.90
23685;DHT22;12020;51.384;6.908;2024-02-21T17:54:10;9.70;99.90
23685;DHT22;12020;51.384;6.908;2024-02-21T17:56:35;9.60;99.90
23685;DHT22;12020;51.384;6.908;2024-02-21T17:59:01;9.60;99.90
23685;DHT22;12020;51.384;6.908;2024-02-21T18:01:27;9.60;99.90
23685;DHT22;12020;51.384;6.908;2024-02-21T18:03:53;9.50;99.90
23685;DHT22;12020;51.384;6.908;2024-02-21T18:06:19;9.50;99.90
23685;DHT22;12020;51.384;6.908;2024-02-21T18:08:45;9.50;99.90
23685;DHT22;12020;51.384;6.908;2024-02-21T18:11:15;9.50;99.90
23685;DHT22;12020;51.384;6.908;2024-02-21T18:13:44;9.40;99.90
23685;DHT22;12020;51.384;6.908;2024-02-21T18:16:10;9.40;99.90
23685;DHT22;12020;51.384;6.908;2024-02-21T18:18:38;9.40;99.90
23685;DHT22;12020;51.384;6.908;2024-02-21T18:21:10;9.30;99.90
23685;DHT22;12020;51.384;6.908;2024-02-21T18:23:36;9.20;99.90
23685;DHT22;12020;51.384;6.908;2024-02-21T18:26:12;9.20;99.90
23685;DHT22;12020;51.384;6.908;2024-02-21T18:28:46;9.20;99.90
23685;DHT22;12020;51.384;6.908;2024-02-21T18:31:14;9.20;99.90
23685;DHT22;12020;51.384;6.908;2024-02-21T18:33:42;9.10;99.90
23685;DHT22;12020;51.384;6.908;2024-02-21T18:36:11;9.10;99.90
23685;DHT22;12020;51.384;6.908;2024-02-21T18:38:37;9.00;99.90
23685;DHT22;12020;51.384;6.908;2024-02-21T18:41:06;8.90;99.90
23685;DHT22;12020;51.384;6.908;2024-02-21T18:43:37;9.00;99.90
23685;DHT22;12020;51.384;6.908;2024-02-21T18:46:05;9.00;99.90
23685;DHT22;12020;51.384;6.908;2024-02-21T18:48:31;8.90;99.90
23685;DHT22;12020;51.384;6.908;2024-02-21T18:51:09;8.90;99.90
23685;DHT22;12020;51.384;6.908;2024-02-21T18:53:41;8.90;99.90
23685;DHT22;12020;51.384;6.908;2024-02-21T18:56:09;8.90;99.90
23685;DHT22;12020;51.384;6.908;2024-02-21T18:58:36;8.80;99.90
23685;DHT22;12020;51.384;6.908;2024-02-21T19:01:02;8.80;99.90
23685;DHT22;12020;51.384;6.908;2024-02-21T19:03:29;8.80;99.90
23685;DHT22;12020;51.384;6.908;2024-02-21T19:05:55;8.80;99.90
23685;DHT22;12020;51.384;6.908;2024-02-21T19:08:22;8.80;99.90
23685;DHT22;12020;51.384;6.908;2024-02-21T19:10:48;8.70;99.90
23685;DHT22;12020;51.384;6.908;2024-02-21T19:13:13;8.70;99.90
23685;DHT22;12020;51.384;6.908;2024-02-21T19:15:41;8.70;99.90
23685;DHT22;12020;51.384;6.908;2024-02-21T19:18:07;8.70;99.90
23685;DHT22;12020;51.384;6.908;2024-02-21T19:20:34;8.70;99.90
23685;DHT22;12020;51.384;6.908;2024-02-21T19:23:01;8.70;99.90
23685;DHT22;12020;51.384;6.908;2024-02-21T19:25:36;8.60;99.90
23685;DHT22;12020;51.384;6.908;2024-02-21T19:28:10;8.60;99.90
23685;DHT22;12020;51.384;6.908;2024-02-21T19:30:39;8.60;99.90
23685;DHT22;12020;51.384;6.908;2024-02-21T19:33:08;8.60;99.90
23685;DHT22;12020;51.384;6.908;2024-02-21T19:35:35;8.60;99.90
23685;DHT22;12020;51.384;6.908;2024-02-21T19:38:01;8.50;99.90
23685;DHT22;12020;51.384;6.908;2024-02-21T19:40:32;8.60;99.90
23685;DHT22;12020;51.384;6.908;2024-02-21T19:42:58;8.60;99.90
23685;DHT22;12020;51.384;6.908;2024-02-21T19:45:26;8.50;99.90
23685;DHT22;12020;51.384;6.908;2024-02-21T19:47:54;8.50;99.90
23685;DHT22;12020;51.384;6.908;2024-02-21T19:50:20;8.50;99.90
23685;DHT22;12020;51.384;6.908;2024-02-21T19:52:48;8.50;99.90
23685;DHT22;12020;51.384;6.908;2024-02-21T19:55:18;8.50;99.90
23685;DHT22;12020;51.384;6.908;2024-02-21T19:57:46;8.50;99.90
23685;DHT22;12020;51.384;6.908;2024-02-21T20:00:16;8.50;99.90
23685;DHT22;12020;51.384;6.908;2024-02-21T20:02:45;8.50;99.90
23685;DHT22;12020;51.384;6.908;2024-02-21T20:05:16;8.50;99.90
23685;DHT22;12020;51.384;6.908;2024-02-21T20:07:43;8.50;99.90
23685;DHT22;12020;51.384;6.908;2024-02-21T20:10:10;8.50;99.90
23685;DHT22;12020;51.384;6.908;2024-02-21T20:12:38;8.50;99.90
23685;DHT22;12020;51.384;6.908;2024-02-21T20:15:06;8.50;99.90
23685;DHT22;12020;51.384;6.908;2024-02-21T20:17:34;8.50;99.90
23685;DHT22;12020;51.384;6.908;2024-02-21T20:20:00;8.50;99.90
23685;DHT22;12020;51.384;6.908;2024-02-21T20:22:27;8.50;99.90
23685;DHT22;12020;51.384;6.908;2024-02-21T20:24:54;8.50;99.90
23685;DHT22;12020;51.384;6.908;2024-02-21T20:27:20;8.50;99.90
23685;DHT22;12020;51.384;6.908;2024-02-21T20:29:46;8.50;99.90
23685;DHT22;12020;51.384;6.908;2024-02-21T20:32:16;8.50;99.90
23685;DHT22;12020;51.384;6.908;2024-02-21T20:34:50;8.50;99.90
23685;DHT22;12020;51.384;6.908;2024-02-21T20:37:16;8.50;99.90
23685;DHT22;12020;51.384;6.908;2024-02-21T20:39:47;8.50;99.90
23685;DHT22;12020;51.384;6.908;2024-02-21T20:42:14;8.50;99.90
23685;DHT22;12020;51.384;6.908;2024-02-21T20:44:45;8.50;99.90
23685;DHT22;12020;51.384;6.908;2024-02-21T20:47:12;8.50;99.90
23685;DHT22;12020;51.384;6.908;2024-02-21T20:49:38;8.50;99.90
23685;DHT22;12020;51.384;6.908;2024-02-21T20:52:06;8.50;99.90
23685;DHT22;12020;51.384;6.908;2024-02-21T20:54:32;8.50;99.90
23685;DHT22;12020;51.384;6.908;2024-02-21T20:56:58;8.50;99.90
23685;DHT22;12020;51.384;6.908;2024-02-21T20:59:26;8.50;99.90
23685;DHT22;12020;51.384;6.908;2024-02-21T21:01:56;8.50;99.90
23685;DHT22;12020;51.384;6.908;2024-02-21T21:04:27;8.50;99.90
23685;DHT22;12020;51.384;6.908;2024-02-21T21:06:53;8.50;99.90
23685;DHT22;12020;51.384;6.908;2024-02-21T21:09:27;8.50;99.90
23685;DHT22;12020;51.384;6.908;2024-02-21T21:11:52;8.50;99.90
23685;DHT22;12020;51.384;6.908;2024-02-21T21:14:19;8.50;99.90
23685;DHT22;12020;51.384;6.908;2024-02-21T21:16:46;8.50;99.90
23685;DHT22;12020;51.384;6.908;2024-02-21T21:19:17;8.50;99.90
23685;DHT22;12020;51.384;6.908;2024-02-21T21:21:42;8.50;99.90
23685;DHT22;12020;51.384;6.908;2024-02-21T21:24:09;8.50;99.90
23685;DHT22;12020;51.384;6.908;2024-02-21T21:26:34;8.50;99.90
23685;DHT22;12020;51.384;6.908;2024-02-21T21:29:01;8.50;99.90
23685;DHT22;12020;51.384;6.908;2024-02-21T21:31:26;8.60;99.90
23685;DHT22;12020;51.384;6.908;2024-02-21T21:33:53;8.60;99.90
23685;DHT22;12020;51.384;6.908;2024-02-21T21:36:21;8.60;99.90
23685;DHT22;12020;51.384;6.908;2024-02-21T21:38:48;8.60;99.90
23685;DHT22;12020;51.384;6.908;2024-02-21T21:41:15;8.60;99.90
23685;DHT22;12020;51.384;6.908;2024-02-21T21:43:42;8.60;99.90
23685;DHT22;12020;51.384;6.908;2024-02-21T21:46:15;8.60;99.90
23685;DHT22;12020;51.384;6.908;2024-02-21T21:48:44;8.60;99.90
23685;DHT22;12020;51.384;6.908;2024-02-21T21:51:12;8.60;99.90
23685;DHT22;12020;51.384;6.908;2024-02-21T21:53:40;8.60;99.90
23685;DHT22;12020;51.384;6.908;2024-02-21T21:56:10;8.60;99.90
23685;DHT22;12020;51.384;6.908;2024-02-21T21:58:36;8.60;99.90
23685;DHT22;12020;51.384;6.908;2024-02-21T22:01:14;8.60;99.90
23685;DHT22;12020;51.384;6.908;2024-02-21T22:03:41;8.60;99.90
23685;DHT22;12020;51.384;6.908;2024-02-21T22:06:07;8.60;99.90
23685;DHT22;12020;51.384;6.908;2024-02-21T22:08:35;8.60;99.90
23685;DHT22;12020;51.384;6.908;2024-02-21T22:11:01;8.60;99.90
23685;DHT22;12020;51.384;6.908;2024-02-21T22:13:50;8.60;99.90
23685;DHT22;12020;51.384;6.908;2024-02-21T22:16:16;8.60;99.90
23685;DHT22;12020;51.384;6.908;2024-02-21T22:18:42;8.60;99.90
23685;DHT22;12020;51.384;6.908;2024-02-21T22:21:08;8.60;99.90
23685;DHT22;12020;51.384;6.908;2024-02-21T22:23:36;8.60;99.90
23685;DHT22;12020;51.384;6.908;2024-02-21T22:26:03;8.70;99.90
23685;DHT22;12020;51.384;6.908;2024-02-21T22:28:30;8.60;99.90
23685;DHT22;12020;51.384;6.908;2024-02-21T22:31:00;8.60;99.90
23685;DHT22;12020;51.384;6.908;2024-02-21T22:33:26;8.60;99.90
23685;DHT22;12020;51.384;6.908;2024-02-21T22:35:59;8.70;99.90
23685;DHT22;12020;51.384;6.908;2024-02-21T22:38:25;8.70;99.90
23685;DHT22;12020;51.384;6.908;2024-02-21T22:40:58;8.70;99.90
23685;DHT22;12020;51.384;6.908;2024-02-21T22:43:26;8.70;99.90
23685;DHT22;12020;51.384;6.908;2024-02-21T22:45:53;8.70;99.90
23685;DHT22;12020;51.384;6.908;2024-02-21T22:48:21;8.70;99.90
23685;DHT22;12020;51.384;6.908;2024-02-21T22:50:50;8.70;99.90
23685;DHT22;12020;51.384;6.908;2024-02-21T22:53:16;8.60;99.90
23685;DHT22;12020;51.384;6.908;2024-02-21T22:55:53;8.60;99.90
23685;DHT22;12020;51.384;6.908;2024-02-21T22:58:20;8.60;99.90
23685;DHT22;12020;51.384;6.908;2024-02-21T23:00:51;8.60;99.90
23685;DHT22;12020;51.384;6.908;2024-02-21T23:03:22;8.60;99.90
23685;DHT22;12020;51.384;6.908;2024-02-21T23:05:50;8.60;99.90
23685;DHT22;12020;51.384;6.908;2024-02-21T23:08:20;8.60;99.90
23685;DHT22;12020;51.384;6.908;2024-02-21T23:10:50;8.60;99.90
23685;DHT22;12020;51.384;6.908;2024-02-21T23:13:17;8.60;99.90
23685;DHT22;12020;51.384;6.908;2024-02-21T23:15:43;8.60;99.90
23685;DHT22;12020;51.384;6.908;2024-02-21T23:18:13;8.60;99.90
23685;DHT22;12020;51.384;6.908;2024-02-21T23:20:39;8.70;99.90
23685;DHT22;12020;51.384;6.908;2024-02-21T23:23:11;8.70;99.90
23685;DHT22;12020;51.384;6.908;2024-02-21T23:25:46;8.70;99.90
23685;DHT22;12020;51.384;6.908;2024-02-21T23:28:14;8.60;99.90
23685;DHT22;12020;51.384;6.908;2024-02-21T23:30:46;8.60;99.90
23685;DHT22;12020;51.384;6.908;2024-02-21T23:33:17;8.60;99.90
23685;DHT22;12020;51.384;6.908;2024-02-21T23:35:46;8.70;99.90
23685;DHT22;12020;51.384;6.908;2024-02-21T23:38:16;8.70;99.90
23685;DHT22;12020;51.384;6.908;2024-02-21T23:40:48;8.70;99.90
23685;DHT22;12020;51.384;6.908;2024-02-21T23:43:18;8.70;99.90
23685;DHT22;12020;51.384;6.908;2024-02-21T23:45:47;8.70;99.90
23685;DHT22;12020;51.384;6.908;2024-02-21T23:48:23;8.70;99.90
23685;DHT22;12020;51.384;6.908;2024-02-21T23:50:56;8.70;99.90
23685;DHT22;12020;51.384;6.908;2024-02-21T23:53:24;8.70;99.90
23685;DHT22;12020;51.384;6.908;2024-02-21T23:55:54;8.80;99.90
23685;DHT22;12020;51.384;6.908;2024-02-21T23:58:22;8.80;99.90
